LICR

Reggio Calabria Airport

Reggio Calabria, Italy
TAF LICR 170500Z 1706/1806 35012KT 9999 SCT030
Issued Valid From Valid To
Nov-17 @ 05:00 UTC
(4 hours ago)
Nov-17 @ 06:00 UTC
(3 hours ago)
Nov-18 @ 06:00 UTC
(in 21 hours)
Nov-17 @ 06:00 to Nov-18 @ 06:00
TAF LICR 170500Z 1706/1806 35012KT 9999 SCT030
Wind Visibility Clouds
350° at 12 knots 10,000+ meters
  • Scattered at 3,000' AGL
TAF LICR 170500Z 1706/1806 35012KT 9999 SCT030
Issued Nov-17 @ 05:00 UTC
(4 hours ago)
Valid From Nov-17 @ 06:00 UTC
(3 hours ago)
Valid To Nov-18 @ 06:00 UTC
(in 21 hours)
Nov-17 @ 06:00 - Nov-18 @ 06:00
Wind Visibility
350° at 12 knots 10,000+ meters
Clouds
  • Scattered at 3,000' AGL